< < Back
Terminal Aerodrome Forecast


Current Version              Previous Versions:   1  2  3  4  5  6  7  8  9  

Terminal Aerodrome Forecast

336
FTUS44 KBMX 252300
TAFMGM
TAF
KMGM 252320Z 2600/2624 32006KT P6SM VCSH SCT035 OVC050
     FM260400 32005KT 4SM -RA SCT020 OVC040
      TEMPO 2606/2610 SCT008 BKN012
     FM261000 30006KT P6SM SCT015 SCT250
     FM261600 28010KT P6SM SKC=

Latest METAR

741
SAUS80 KWBC 261700 RRA
MTRMGM
METAR KMGM 261653Z VRB04KT 10SM CLR 12/M04 A3022 RMK AO2 SLP231
T01221039


USA.gov is the U.S. government's official web portal to all federal, state and local government web resources and services.